Home > Products > Valid Products > TAF

000
FTUS44 KLCH 041900 AAB
TAFLCH
TAF AMD
KLCH 041900Z 0419/0518 18010G24KT P6SM SCT015 BKN090
     FM050200 18005KT 4SM BR VCSH OVC007
     FM050700 36015G20KT 4SM RA BR OVC007
     FM051100 01022G30KT P6SM -RA OVC015=



000
FTUS44 KLCH 041700 AAA
TAFARA
TAF AMD
KARA 041754Z 0418/0518 18012G20KT P6SM VCSH SCT015 OVC025
     FM050300 19005KT 5SM BR VCSH OVC007
     FM050800 36015G20KT 4SM -RA BR OVC007
     FM051100 01017G29KT P6SM -RA OVC015=



000
FTUS44 KLCH 041700 AAA
TAFARA
TAF AMD
KARA 041754Z 0418/0518 18012G20KT P6SM VCSH SCT015 OVC025
     FM050300 19005KT 5SM BR VCSH OVC007
     FM050800 36015G20KT 4SM -RA BR OVC007
     FM051100 01017G29KT P6SM -RA OVC015=



000
FTUS44 KLCH 041700 AAA
TAFBPT
TAF AMD
KBPT 041753Z 0418/0518 19010G17KT P6SM VCSH SCT015 OVC025
     FM050100 16007KT 4SM BR VCSH FEW003 OVC006
     FM050600 35016G22KT 4SM RA BR OVC007
     FM051000 36021G30KT P6SM -RA OVC015=



000
FTUS44 KLCH 041700 AAA
TAFLFT
TAF AMD
KLFT 041753Z 0418/0518 18012G20KT P6SM VCSH SCT015 OVC025
     FM050300 19005KT 5SM BR VCSH OVC007
     FM050700 36015G20KT 4SM -RA BR OVC007
     FM051000 01017G29KT P6SM -RA OVC015=



000
FTUS44 KLCH 041700 AAA
TAFLFT
TAF AMD
KLFT 041753Z 0418/0518 18012G20KT P6SM VCSH SCT015 OVC025
     FM050300 19005KT 5SM BR VCSH OVC007
     FM050700 36015G20KT 4SM -RA BR OVC007
     FM051000 01017G29KT P6SM -RA OVC015=



000
FTUS44 KLCH 041700 AAA
TAFBPT
TAF AMD
KBPT 041753Z 0418/0518 19010G17KT P6SM VCSH SCT015 OVC025
     FM050100 16007KT 4SM BR VCSH FEW003 OVC006
     FM050600 35016G22KT 4SM RA BR OVC007
     FM051000 36021G30KT P6SM -RA OVC015=



000
FTUS44 KLCH 041700 AAA
TAFLCH
TAF AMD
KLCH 041752Z 0418/0518 18010G18KT P6SM SCT015
      TEMPO 0418/0422 BKN015
     FM050200 18005KT 4SM BR VCSH OVC007
     FM050700 36015G20KT 4SM RA BR OVC007
     FM051100 01022G30KT P6SM -RA OVC015=



000
FTUS44 KLCH 041700 AAA
TAFLCH
TAF AMD
KLCH 041752Z 0418/0518 18010G18KT P6SM SCT015
      TEMPO 0418/0422 BKN015
     FM050200 18005KT 4SM BR VCSH OVC007
     FM050700 36015G20KT 4SM RA BR OVC007
     FM051100 01022G30KT P6SM -RA OVC015=



000
FTUS44 KLCH 041700
TAFLFT
TAF
KLFT 041720Z 0418/0518 18012G20KT P6SM VCSH BKN015 OVC025
     FM050300 19005KT 5SM BR VCSH OVC007
     FM050700 36015G20KT 4SM -RA BR OVC007
     FM051000 01017G29KT P6SM -RA OVC015=



000
FTUS44 KLCH 041700
TAFARA
TAF
KARA 041720Z 0418/0518 18012G20KT P6SM VCSH BKN015 OVC025
     FM050300 19005KT 5SM BR VCSH OVC007
     FM050800 36015G20KT 4SM -RA BR OVC007
     FM051100 01017G29KT P6SM -RA OVC015=



000
FTUS44 KLCH 041700
TAFLFT
TAF
KLFT 041720Z 0418/0518 18012G20KT P6SM VCSH BKN015 OVC025
     FM050300 19005KT 5SM BR VCSH OVC007
     FM050700 36015G20KT 4SM -RA BR OVC007
     FM051000 01017G29KT P6SM -RA OVC015=



000
FTUS44 KLCH 041700
TAFARA
TAF
KARA 041720Z 0418/0518 18012G20KT P6SM VCSH BKN015 OVC025
     FM050300 19005KT 5SM BR VCSH OVC007
     FM050800 36015G20KT 4SM -RA BR OVC007
     FM051100 01017G29KT P6SM -RA OVC015=



000
FTUS44 KLCH 041700
TAFBPT
TAF
KBPT 041720Z 0418/0518 19012G17KT P6SM VCSH BKN015 OVC025
     FM050100 16007KT 4SM BR VCSH FEW003 OVC006
     FM050600 35016G22KT 4SM RA BR OVC007
     FM051000 36021G30KT P6SM -RA OVC015=



000
FTUS44 KLCH 041700
TAFAEX
TAF
KAEX 041720Z 0418/0518 18012KT P6SM VCSH FEW015 BKN028 OVC040
     FM042000 19012G20KT P6SM VCSH SCT025 OVC050
     FM050000 18006KT 6SM BR VCSH OVC035
     FM050400 36014G20KT 5SM -RA BR OVC007=



000
FTUS44 KLCH 041700
TAFLCH
TAF
KLCH 041720Z 0418/0518 19010G18KT P6SM OVC015
     FM050200 18005KT 4SM BR VCSH OVC007
     FM050700 36015G20KT 4SM RA BR OVC007
     FM051100 01022G30KT P6SM -RA OVC015=



000
FTUS44 KLCH 041700
TAFBPT
TAF
KBPT 041720Z 0418/0518 19012G17KT P6SM VCSH BKN015 OVC025
     FM050100 16007KT 4SM BR VCSH FEW003 OVC006
     FM050600 35016G22KT 4SM RA BR OVC007
     FM051000 36021G30KT P6SM -RA OVC015=



000
FTUS44 KLCH 041700
TAFLCH
TAF
KLCH 041720Z 0418/0518 19010G18KT P6SM OVC015
     FM050200 18005KT 4SM BR VCSH OVC007
     FM050700 36015G20KT 4SM RA BR OVC007
     FM051100 01022G30KT P6SM -RA OVC015=



000
FTUS44 KLCH 041700
TAFAEX
TAF
KAEX 041720Z 0418/0518 18012KT P6SM VCSH FEW015 BKN028 OVC040
     FM042000 19012G20KT P6SM VCSH SCT025 OVC050
     FM050000 18006KT 6SM BR VCSH OVC035
     FM050400 36014G20KT 5SM -RA BR OVC007=



000
FTUS44 KLCH 041600 AAA
TAFAEX
TAF AMD
KAEX 041610Z 0416/0512 18010G15KT P6SM VCSH FEW015 OVC025
     FM050000 18006KT 6SM BR VCSH OVC035
     FM050400 36014G20KT 5SM -RA BR OVC007=



000
FTUS44 KLCH 041600 AAA
TAFARA
TAF AMD
KARA 041610Z 0416/0512 18010KT P6SM FEW015 SCT025
     FM041900 18013G18KT P6SM VCSH OVC025
     FM050100 17007KT 2SM BR VCSH OVC005
     FM050800 36015G20KT 4SM -RA BR OVC005=



000
FTUS44 KLCH 041100
TAFARA
TAF
KARA 041130Z 0412/0512 14006KT 3SM BR SCT003 OVC012
      TEMPO 0412/0415 1/2SM FG OVC003
     FM041600 18010KT P6SM OVC015
     FM041900 18013G18KT P6SM VCSH OVC025
     FM050100 17007KT 2SM BR VCSH OVC005
     FM050800 36015G20KT 4SM -RA BR OVC005=



000
FTUS44 KLCH 041100
TAFLCH
TAF
KLCH 041130Z 0412/0512 17007KT 6SM BR SCT007 OVC025
      TEMPO 0412/0416 3SM BR OVC007
     FM041600 19011G17KT P6SM VCSH OVC015
     FM050200 18005KT 4SM BR VCSH OVC007
     FM050700 36015G20KT 4SM RA BR OVC007=



000
FTUS44 KLCH 041100
TAFBPT
TAF
KBPT 041130Z 0412/0512 16008KT 6SM BR SCT004 OVC015
      TEMPO 0412/0416 3SM BR OVC004
     FM041600 17012G17KT P6SM VCSH OVC015
     FM050100 16007KT 4SM BR VCSH OVC005
     FM050600 35016G22KT 4SM RA BR OVC007=



000
FTUS44 KLCH 041100
TAFAEX
TAF
KAEX 041130Z 0412/0512 15005KT 6SM BR OVC015
      TEMPO 0412/0416 3SM BR OVC007
     FM041700 18010G15KT P6SM VCSH OVC025
     FM050000 18006KT 6SM BR VCSH OVC035
     FM050400 36014G20KT 5SM -RA BR OVC007=



000
FTUS44 KLCH 041100
TAFARA
TAF
KARA 041130Z 0412/0512 14006KT 3SM BR SCT003 OVC012
      TEMPO 0412/0415 1/2SM FG OVC003
     FM041600 18010KT P6SM OVC015
     FM041900 18013G18KT P6SM VCSH OVC025
     FM050100 17007KT 2SM BR VCSH OVC005
     FM050800 36015G20KT 4SM -RA BR OVC005=



000
FTUS44 KLCH 041100
TAFLFT
TAF
KLFT 041130Z 0412/0512 15005KT 6SM BR SCT004 OVC025
      TEMPO 0412/0416 3SM BR OVC003
     FM041600 18010KT P6SM OVC015
     FM041900 18012G17KT P6SM VCSH OVC025
     FM050200 17005KT 5SM BR VCSH OVC005
     FM050800 36015G20KT 4SM -RA BR OVC007=



000
FTUS44 KLCH 041100
TAFLCH
TAF
KLCH 041130Z 0412/0512 17007KT 6SM BR SCT007 OVC025
      TEMPO 0412/0416 3SM BR OVC007
     FM041600 19011G17KT P6SM VCSH OVC015
     FM050200 18005KT 4SM BR VCSH OVC007
     FM050700 36015G20KT 4SM RA BR OVC007=



000
FTUS44 KLCH 041100
TAFBPT
TAF
KBPT 041130Z 0412/0512 16008KT 6SM BR SCT004 OVC015
      TEMPO 0412/0416 3SM BR OVC004
     FM041600 17012G17KT P6SM VCSH OVC015
     FM050100 16007KT 4SM BR VCSH OVC005
     FM050600 35016G22KT 4SM RA BR OVC007=



000
FTUS44 KLCH 041100
TAFLFT
TAF
KLFT 041130Z 0412/0512 15005KT 6SM BR SCT004 OVC025
      TEMPO 0412/0416 3SM BR OVC003
     FM041600 18010KT P6SM OVC015
     FM041900 18012G17KT P6SM VCSH OVC025
     FM050200 17005KT 5SM BR VCSH OVC005
     FM050800 36015G20KT 4SM -RA BR OVC007=



000
FTUS44 KLCH 041100
TAFAEX
TAF
KAEX 041130Z 0412/0512 15005KT 6SM BR OVC015
      TEMPO 0412/0416 3SM BR OVC007
     FM041700 18010G15KT P6SM VCSH OVC025
     FM050000 18006KT 6SM BR VCSH OVC035
     FM050400 36014G20KT 5SM -RA BR OVC007=



000
FTUS44 KLCH 040900 AAA
TAFARA
TAF AMD
KARA 040915Z 0409/0506 15004KT 1/4SM FG OVC002
     FM041200 16007KT 1/2SM FG OVC003
     FM041600 18010KT P6SM OVC007
     FM041800 18010G15KT P6SM OVC015
     FM050200 17005KT P6SM OVC005=



000
FTUS44 KLCH 040900 AAA
TAFARA
TAF AMD
KARA 040915Z 0409/0506 15004KT 1/4SM FG OVC002
     FM041200 16007KT 1/2SM FG OVC003
     FM041600 18010KT P6SM OVC007
     FM041800 18010G15KT P6SM OVC015
     FM050200 17005KT P6SM OVC005=



000
FTUS44 KLCH 040900 AAA
TAFAEX
TAF AMD
KAEX 040913Z 0409/0506 14004KT 3SM BR SCT012 OVC035
     FM041100 15005KT 3SM BR OVC012
      TEMPO 0411/0415 BKN007
     FM041800 18010G15KT P6SM OVC015
     FM050300 35010G15KT 4SM -RA OVC007=



000
FTUS44 KLCH 040900 AAA
TAFAEX
TAF AMD
KAEX 040913Z 0409/0506 14004KT 3SM BR SCT012 OVC035
     FM041100 15005KT 3SM BR OVC012
      TEMPO 0411/0415 BKN007
     FM041800 18010G15KT P6SM OVC015
     FM050300 35010G15KT 4SM -RA OVC007=



000
FTUS44 KLCH 040900 AAA
TAFLFT
TAF AMD
KLFT 040909Z 0409/0506 17005KT P6SM SCT007 OVC030
     FM041100 16006KT 3SM BR OVC007
     FM041600 18010KT P6SM OVC007
     FM041800 18010G15KT P6SM OVC015
     FM050200 17005KT P6SM OVC005=



000
FTUS44 KLCH 040900 AAA
TAFLFT
TAF AMD
KLFT 040909Z 0409/0506 17005KT P6SM SCT007 OVC030
     FM041100 16006KT 3SM BR OVC007
     FM041600 18010KT P6SM OVC007
     FM041800 18010G15KT P6SM OVC015
     FM050200 17005KT P6SM OVC005=



000
FTUS44 KLCH 040700 CCA
TAFLCH
TAF COR
KLCH 040742Z 0408/0506 18006KT 3SM BR OVC007
      TEMPO 0408/0410 6SM BR SCT007 OVC025
     FM041700 18010KT P6SM OVC007
     FM042000 18010G15KT P6SM OVC015
     FM050200 17005KT P6SM OVC005=



000
FTUS44 KLCH 040700 CCA
TAFLCH
TAF COR
KLCH 040742Z 0408/0506 18006KT 3SM BR OVC007
      TEMPO 0408/0410 6SM BR SCT007 OVC025
     FM041700 18010KT P6SM OVC007
     FM042000 18010G15KT P6SM OVC015
     FM050200 17005KT P6SM OVC005=



000
FTUS44 KLCH 040700 AAA
TAFBPT
TAF AMD
KBPT 040741Z 0408/0506 17010KT 3SM BR OVC004
      TEMPO 0408/0410 6SM BR SCT007 OVC025
     FM041700 16010KT P6SM OVC007
     FM041900 16010G15KT P6SM OVC025
     FM050200 17005KT P6SM OVC005=



000
FTUS44 KLCH 040700 AAA
TAFBPT
TAF AMD
KBPT 040741Z 0408/0506 17010KT 3SM BR OVC004
      TEMPO 0408/0410 6SM BR SCT007 OVC025
     FM041700 16010KT P6SM OVC007
     FM041900 16010G15KT P6SM OVC025
     FM050200 17005KT P6SM OVC005=



000
FTUS44 KLCH 040700 AAA
TAFLCH
TAF AMD
KLCH 040737Z 0408/0506 18006KT 6SM BR SCT007 BKN020
      TEMPO 0409/0413 3SM BR OVC007
     FM041700 18010KT P6SM OVC007
     FM042000 18010G15KT P6SM OVC015
     FM050200 17005KT P6SM OVC005=



000
FTUS44 KLCH 040700 AAA
TAFLCH
TAF AMD
KLCH 040737Z 0408/0506 18006KT 6SM BR SCT007 BKN020
      TEMPO 0409/0413 3SM BR OVC007
     FM041700 18010KT P6SM OVC007
     FM042000 18010G15KT P6SM OVC015
     FM050200 17005KT P6SM OVC005=



000
FTUS44 KLCH 040500
TAFLCH
TAF
KLCH 040520Z 0406/0506 17006KT 6SM BR OVC003
      TEMPO 0409/0413 2SM BR OVC002
     FM041700 18010KT P6SM OVC007
     FM042000 18010G15KT P6SM OVC015
     FM050200 17005KT P6SM OVC005=



000
FTUS44 KLCH 040500
TAFAEX
TAF
KAEX 040520Z 0406/0506 VRB03KT 6SM BR SCT015 OVC050
     FM040800 VRB03KT 3SM BR SCT007 OVC015
      TEMPO 0409/0413 1SM BR OVC005
     FM041700 18010KT P6SM OVC007
     FM041900 18010G15KT P6SM OVC015
     FM050300 35010G15KT 4SM -RA OVC007=



000
FTUS44 KLCH 040500
TAFARA
TAF
KARA 040520Z 0406/0506 VRB03KT 1/2SM FG OVC003
     FM041600 18010KT P6SM OVC007
     FM041800 18010G15KT P6SM OVC015
     FM050200 17005KT P6SM OVC005=



000
FTUS44 KLCH 040500
TAFLFT
TAF
KLFT 040520Z 0406/0506 17005KT P6SM OVC006
      TEMPO 0409/0413 2SM BR OVC002
     FM041600 18010KT P6SM OVC007
     FM041800 18010G15KT P6SM OVC015
     FM050200 17005KT P6SM OVC005=



000
FTUS44 KLCH 040500
TAFBPT
TAF
KBPT 040520Z 0406/0506 16008KT P6SM OVC007
      TEMPO 0409/0413 2SM BR OVC003
     FM041700 16010KT P6SM OVC007
     FM041900 16010G15KT P6SM OVC025
     FM050200 17005KT P6SM OVC005=



000
FTUS44 KLCH 040200 AAA
TAFLFT
TAF AMD
KLFT 040259Z 0403/0424 16007KT P6SM OVC003
     FM040600 16005KT 5SM BR OVC003
      TEMPO 0409/0413 1SM BR OVC002
     FM041600 18010KT P6SM OVC007
     FM041800 18010G15KT P6SM OVC015=



000
FTUS44 KLCH 040200 AAA
TAFARA
TAF AMD
KARA 040258Z 0403/0424 17007KT 3SM BR OVC003
      TEMPO 0409/0413 1SM BR OVC002
     FM041600 18010KT P6SM OVC007
     FM041800 18010G15KT P6SM OVC015=



000
FTUS44 KLCH 040200 AAA
TAFARA
TAF AMD
KARA 040258Z 0403/0424 17007KT 3SM BR OVC003
      TEMPO 0409/0413 1SM BR OVC002
     FM041600 18010KT P6SM OVC007
     FM041800 18010G15KT P6SM OVC015=



000
FTUS44 KLCH 040200 AAA
TAFBPT
TAF AMD
KBPT 040257Z 0403/0424 17008KT P6SM OVC004
     FM041700 16010KT P6SM OVC007
     FM041900 16010G15KT P6SM OVC025=



000
FTUS44 KLCH 040200 AAA
TAFBPT
TAF AMD
KBPT 040257Z 0403/0424 17008KT P6SM OVC004
     FM041700 16010KT P6SM OVC007
     FM041900 16010G15KT P6SM OVC025=



000
FTUS44 KLCH 040200 AAA
TAFLCH
TAF AMD
KLCH 040256Z 0403/0424 17005KT P6SM OVC007
     FM040600 16005KT 5SM BR OVC004
     FM041700 18010KT P6SM OVC007
     FM042000 18010G15KT P6SM OVC015=



000
FTUS44 KLCH 040200 AAA
TAFLCH
TAF AMD
KLCH 040256Z 0403/0424 17005KT P6SM OVC007
     FM040600 16005KT 5SM BR OVC004
     FM041700 18010KT P6SM OVC007
     FM042000 18010G15KT P6SM OVC015=



000
FTUS44 KLCH 032300
TAFARA
TAF
KARA 032337Z 0400/0424 19010KT P6SM BKN015
     FM040300 17007KT P6SM OVC007
     FM040500 17005KT 1/2SM FG OVC003
     FM041600 18010KT P6SM OVC007
     FM041800 18010G15KT P6SM OVC015=



000
FTUS44 KLCH 032300
TAFAEX
TAF
KAEX 032337Z 0400/0424 19010KT P6SM SCT025 OVC060
     FM040300 16006KT 1/2SM FG OVC003
     FM041700 18010KT P6SM OVC007
     FM041900 18010G15KT P6SM OVC015=



000
FTUS44 KLCH 032300
TAFBPT
TAF
KBPT 032337Z 0400/0424 19015G20KT P6SM BKN025
     FM040300 15006KT 1/2SM FG OVC003
     FM041700 16010KT P6SM OVC007
     FM041900 16010G15KT P6SM OVC025=



000
FTUS44 KLCH 032300
TAFLFT
TAF
KLFT 032337Z 0400/0424 19012G18KT P6SM SCT025
     FM040300 16006KT 1/2SM FG OVC003
     FM041600 18010KT P6SM OVC007
     FM041800 18010G15KT P6SM OVC015=



000
FTUS44 KLCH 032300
TAFLCH
TAF
KLCH 032337Z 0400/0424 18010KT P6SM BKN015
     FM040300 16006KT 1/2SM FG OVC003
     FM041700 18010KT P6SM OVC007
     FM042000 18010G15KT P6SM OVC015=



000
FTUS44 KLCH 032300
TAFAEX
TAF
KAEX 032337Z 0400/0424 19010KT P6SM SCT025 OVC060
     FM040300 16006KT 1/2SM FG OVC003
     FM041700 18010KT P6SM OVC007
     FM041900 18010G15KT P6SM OVC015=



000
FTUS44 KLCH 032300
TAFLFT
TAF
KLFT 032337Z 0400/0424 19012G18KT P6SM SCT025
     FM040300 16006KT 1/2SM FG OVC003
     FM041600 18010KT P6SM OVC007
     FM041800 18010G15KT P6SM OVC015=



000
FTUS44 KLCH 032300
TAFARA
TAF
KARA 032337Z 0400/0424 19010KT P6SM BKN015
     FM040300 17007KT P6SM OVC007
     FM040500 17005KT 1/2SM FG OVC003
     FM041600 18010KT P6SM OVC007
     FM041800 18010G15KT P6SM OVC015=



000
FTUS44 KLCH 032300
TAFBPT
TAF
KBPT 032337Z 0400/0424 19015G20KT P6SM BKN025
     FM040300 15006KT 1/2SM FG OVC003
     FM041700 16010KT P6SM OVC007
     FM041900 16010G15KT P6SM OVC025=



000
FTUS44 KLCH 032300
TAFLCH
TAF
KLCH 032337Z 0400/0424 18010KT P6SM BKN015
     FM040300 16006KT 1/2SM FG OVC003
     FM041700 18010KT P6SM OVC007
     FM042000 18010G15KT P6SM OVC015=



000
FTUS44 KLCH 032100 AAA
TAFAEX
TAF AMD
KAEX 032129Z 0321/0418 18010KT P6SM FEW027 SCT035 BKN045
     FM032300 19010G16KT P6SM OVC020
     FM040200 17006KT 3/4SM BR OVC009
     FM040400 16005KT 1/4SM FG OVC003=



000
FTUS44 KLCH 031900 AAB
TAFBPT
TAF AMD
KBPT 031905Z 0319/0418 19013G25KT P6SM BKN030
     FM040000 17012KT P6SM OVC010
     FM040100 16008KT 1/2SM FG OVC002=



000
FTUS44 KLCH 031900 AAA
TAFLCH
TAF AMD
KLCH 031904Z 0319/0418 21012KT P6SM SCT012
     FM032000 19009G16KT P6SM BKN010
     FM040200 16006KT 1/2SM FG OVC001=



000
FTUS44 KLCH 031900 AAA
TAFLCH
TAF AMD
KLCH 031904Z 0319/0418 21012KT P6SM SCT012
     FM032000 19009G16KT P6SM BKN010
     FM040200 16006KT 1/2SM FG OVC001=



000
FTUS44 KLCH 031800 AAA
TAFLFT
TAF AMD
KLFT 031827Z 0318/0418 18012G18KT P6SM FEW019 SCT024 BKN029
     FM032000 19010G15KT P6SM OVC019
     FM040000 19006KT 2SM BR OVC010
     FM040100 18005KT 1/2SM FG OVC003=



000
FTUS44 KLCH 031800 AAA
TAFBPT
TAF AMD
KBPT 031825Z 0318/0418 19011KT P6SM BKN011
     FM031900 17010G15KT P6SM OVC004
     FM040000 17012KT P6SM OVC010
     FM040100 16008KT 1/2SM FG OVC002=



000
FTUS44 KLCH 031700
TAFARA
TAF
KARA 031725Z 0318/0418 17010KT P6SM OVC015
     FM032000 19010G15KT P6SM OVC015
     FM040000 19006KT 2SM BR OVC010
     FM040100 18005KT 1/2SM FG OVC003=



000
FTUS44 KLCH 031700
TAFBPT
TAF
KBPT 031725Z 0318/0418 15008KT 6SM BR OVC003
     FM031900 17010G15KT P6SM OVC004
     FM040000 17012KT P6SM OVC010
     FM040100 16008KT 1/2SM FG OVC002=



000
FTUS44 KLCH 031700
TAFARA
TAF
KARA 031725Z 0318/0418 17010KT P6SM OVC015
     FM032000 19010G15KT P6SM OVC015
     FM040000 19006KT 2SM BR OVC010
     FM040100 18005KT 1/2SM FG OVC003=



000
FTUS44 KLCH 031700
TAFAEX
TAF
KAEX 031725Z 0318/0418 18010KT 6SM BR OVC004
     FM032000 19010G15KT P6SM OVC004
     FM032200 19010G16KT P6SM OVC020
     FM040200 17006KT 3/4SM BR OVC009
     FM040400 16005KT 1/4SM FG OVC003=



000
FTUS44 KLCH 031700
TAFLCH
TAF
KLCH 031725Z 0318/0418 17010G15KT P6SM OVC004
     FM032000 19009G16KT P6SM OVC010
     FM040100 16006KT 1/2SM FG OVC001=



000
FTUS44 KLCH 031700
TAFLFT
TAF
KLFT 031725Z 0318/0418 15004KT 6SM BR OVC015
     FM032000 19010G15KT P6SM OVC015
     FM040000 19006KT 2SM BR OVC010
     FM040100 18005KT 1/2SM FG OVC003=



000
FTUS44 KLCH 031700
TAFBPT
TAF
KBPT 031725Z 0318/0418 15008KT 6SM BR OVC003
     FM031900 17010G15KT P6SM OVC004
     FM040000 17012KT P6SM OVC010
     FM040100 16008KT 1/2SM FG OVC002=



000
FTUS44 KLCH 031700
TAFLCH
TAF
KLCH 031725Z 0318/0418 17010G15KT P6SM OVC004
     FM032000 19009G16KT P6SM OVC010
     FM040100 16006KT 1/2SM FG OVC001=



000
FTUS44 KLCH 031700
TAFAEX
TAF
KAEX 031725Z 0318/0418 18010KT 6SM BR OVC004
     FM032000 19010G15KT P6SM OVC004
     FM032200 19010G16KT P6SM OVC020
     FM040200 17006KT 3/4SM BR OVC009
     FM040400 16005KT 1/4SM FG OVC003=



000
FTUS44 KLCH 031700
TAFLFT
TAF
KLFT 031725Z 0318/0418 15004KT 6SM BR OVC015
     FM032000 19010G15KT P6SM OVC015
     FM040000 19006KT 2SM BR OVC010
     FM040100 18005KT 1/2SM FG OVC003=



000
FTUS44 KLCH 031500 AAA
TAFLFT
TAF AMD
KLFT 031559Z 0316/0412 15004KT 3/4SM BR OVC002
     FM031900 18010G15KT 6SM BR OVC007
     FM032000 19010G15KT P6SM OVC015
     FM040000 19006KT P6SM OVC009
     FM040100 18005KT 1/2SM FG OVC003=



000
FTUS44 KLCH 031500 AAC
TAFAEX
TAF AMD
KAEX 031557Z 0316/0412 12006KT 1/2SM FG VV002
     FM031800 18010KT 3/4SM BR OVC004
     FM032200 19010G16KT P6SM OVC010
     FM040200 17006KT 3/4SM BR OVC009
     FM040400 16005KT 1/4SM FG OVC001=



000
FTUS44 KLCH 031400 AAA
TAFARA
TAF AMD
KARA 031433Z 0315/0412 09004KT 1/4SM FG VV002
     FM031600 15006KT 3SM BR OVC004
     FM031800 17010KT P6SM OVC007
     FM032000 18010G15KT P6SM OVC015
     FM040100 18006KT 4SM BR OVC003=



000
FTUS44 KLCH 031400 AAA
TAFLCH
TAF AMD
KLCH 031432Z 0315/0412 10006KT 1/2SM FG VV003
     FM031600 19010G15KT 2SM BR OVC004
     FM031800 17010G15KT P6SM OVC012
     FM040100 16006KT 2SM BR OVC003=



000
FTUS44 KLCH 031400 AAA
TAFLCH
TAF AMD
KLCH 031432Z 0315/0412 10006KT 1/2SM FG VV003
     FM031600 19010G15KT 2SM BR OVC004
     FM031800 17010G15KT P6SM OVC012
     FM040100 16006KT 2SM BR OVC003=



000
FTUS44 KLCH 031400 AAB
TAFAEX
TAF AMD
KAEX 031430Z 0315/0412 13005KT 1/2SM FG OVC004
      TEMPO 0315/0316 1/4SM FG VV002
     FM031600 16008KT 4SM BR OVC012
     FM031800 18010KT P6SM FEW010 BKN025
     FM040400 16007KT 2SM BR OVC003=



000
FTUS44 KLCH 031400 AAB
TAFAEX
TAF AMD
KAEX 031430Z 0315/0412 13005KT 1/2SM FG OVC004
      TEMPO 0315/0316 1/4SM FG VV002
     FM031600 16008KT 4SM BR OVC012
     FM031800 18010KT P6SM FEW010 BKN025
     FM040400 16007KT 2SM BR OVC003=



000
FTUS44 KLCH 031300 AAA
TAFAEX
TAF AMD
KAEX 031324Z 0313/0412 13005KT 1/2SM FG OVC004
     FM031600 16008KT 4SM BR OVC012
     FM031800 18010KT P6SM FEW010 BKN025
     FM040400 16007KT 2SM BR OVC003=



000
FTUS44 KLCH 031100
TAFBPT
TAF
KBPT 031120Z 0312/0412 07005KT 1/2SM FG OVC002
     FM031700 15008KT 3SM BR OVC003
     FM031900 17010G15KT P6SM OVC012
     FM040100 15008KT 2SM BR OVC003=



000
FTUS44 KLCH 031100
TAFAEX
TAF
KAEX 031120Z 0312/0412 VRB03KT 3SM BR OVC004
     FM031800 16008KT P6SM OVC012
     FM032000 18010KT P6SM FEW010 BKN025
     FM040400 16007KT 2SM BR OVC003=



000
FTUS44 KLCH 031100
TAFARA
TAF
KARA 031120Z 0312/0412 VRB03KT 1/2SM FG OVC003
     FM031500 15006KT 3SM BR OVC004
     FM031800 17010KT P6SM OVC007
     FM032000 18010G15KT P6SM OVC015
     FM040100 18006KT 4SM BR OVC003=



000
FTUS44 KLCH 031100
TAFLFT
TAF
KLFT 031120Z 0312/0412 VRB03KT 1/4SM FG OVC002
     FM031600 15006KT 3SM BR OVC004
     FM031800 17010KT P6SM OVC007
     FM032000 18010G15KT P6SM OVC015
     FM040100 18005KT 4SM BR OVC003=



000
FTUS44 KLCH 031100
TAFLCH
TAF
KLCH 031120Z 0312/0412 06005KT 1/4SM FG OVC002
     FM031500 15008KT 2SM BR OVC003
     FM031800 17010G15KT P6SM OVC012
     FM040100 16006KT 2SM BR OVC003=



000
FTUS44 KLCH 030600 AAA
TAFARA
TAF AMD
KARA 030620Z 0306/0406 VRB03KT 1/4SM FG OVC002
     FM031600 15006KT 3SM BR OVC004
     FM031800 17010KT P6SM OVC007
     FM032000 18010G15KT P6SM OVC015
     FM040100 18006KT 4SM BR OVC003=



000
FTUS44 KLCH 030600 AAA
TAFARA
TAF AMD
KARA 030620Z 0306/0406 VRB03KT 1/4SM FG OVC002
     FM031600 15006KT 3SM BR OVC004
     FM031800 17010KT P6SM OVC007
     FM032000 18010G15KT P6SM OVC015
     FM040100 18006KT 4SM BR OVC003=



000
FTUS44 KLCH 030600 AAA
TAFLFT
TAF AMD
KLFT 030619Z 0306/0406 VRB03KT 1/4SM FG OVC002
     FM031600 15006KT 3SM BR OVC004
     FM031800 17010KT P6SM OVC007
     FM032000 18010G15KT P6SM OVC015
     FM040100 18005KT 4SM BR OVC003=



000
FTUS44 KLCH 030600 AAA
TAFLFT
TAF AMD
KLFT 030619Z 0306/0406 VRB03KT 1/4SM FG OVC002
     FM031600 15006KT 3SM BR OVC004
     FM031800 17010KT P6SM OVC007
     FM032000 18010G15KT P6SM OVC015
     FM040100 18005KT 4SM BR OVC003=



000
FTUS44 KLCH 030500
TAFBPT
TAF
KBPT 030520Z 0306/0406 VRB05KT 1/2SM FG OVC002
     FM031600 15008KT 3SM BR OVC007
     FM031800 17010G15KT P6SM OVC012
     FM040100 15008KT 4SM BR OVC003=



000
FTUS44 KLCH 030500
TAFAEX
TAF
KAEX 030520Z 0306/0406 VRB03KT 1/2SM FG OVC002
     FM031600 15006KT 3SM BR OVC004
     FM031800 16008KT P6SM OVC007
     FM032000 18010KT P6SM SCT015=



000
FTUS44 KLCH 030500
TAFLFT
TAF
KLFT 030520Z 0306/0406 VRB03KT 1/2SM FG OVC002
     FM031600 15006KT 3SM BR OVC004
     FM031800 17010KT P6SM OVC007
     FM032000 18010G15KT P6SM OVC015
     FM040100 18005KT 4SM BR OVC003=



000
FTUS44 KLCH 030500
TAFARA
TAF
KARA 030520Z 0306/0406 VRB03KT 1/2SM FG OVC002
     FM031600 15006KT 3SM BR OVC004
     FM031800 17010KT P6SM OVC007
     FM032000 18010G15KT P6SM OVC015
     FM040100 18006KT 4SM BR OVC003=



000
FTUS44 KLCH 030500
TAFLCH
TAF
KLCH 030520Z 0306/0406 VRB05KT 1/2SM FG OVC002
     FM031600 15008KT 3SM BR OVC007
     FM031800 17010G15KT P6SM OVC012
     FM040100 16006KT 4SM BR OVC003=



000
FTUS44 KLCH 030200 AAA
TAFLCH
TAF AMD
KLCH 030218Z 0302/0324 VRB05KT 1/2SM FG OVC002
      TEMPO 0309/0313 1/4SM FG VV001
     FM031600 15008KT 3SM BR OVC007
     FM031800 17010G15KT P6SM OVC015=



000
FTUS44 KLCH 030200 AAA
TAFLCH
TAF AMD
KLCH 030218Z 0302/0324 VRB05KT 1/2SM FG OVC002
      TEMPO 0309/0313 1/4SM FG VV001
     FM031600 15008KT 3SM BR OVC007
     FM031800 17010G15KT P6SM OVC015=



000
FTUS44 KLCH 030000 AAA
TAFLFT
TAF AMD
KLFT 030013Z 0300/0324 03005KT 1SM BR OVC003
      TEMPO 0300/0303 1/2SM FG
     FM030300 VRB03KT 1/2SM FG OVC002
     FM031600 15006KT 3SM BR OVC004
     FM031800 17010KT P6SM OVC007
     FM032000 18010G15KT P6SM OVC015=



000
FTUS44 KLCH 030000 AAA
TAFLFT
TAF AMD
KLFT 030013Z 0300/0324 03005KT 1SM BR OVC003
      TEMPO 0300/0303 1/2SM FG
     FM030300 VRB03KT 1/2SM FG OVC002
     FM031600 15006KT 3SM BR OVC004
     FM031800 17010KT P6SM OVC007
     FM032000 18010G15KT P6SM OVC015=



000
FTUS44 KLCH 022300
TAFBPT
TAF
KBPT 022340Z 0300/0324 VRB05KT P6SM OVC015
     FM030300 VRB05KT 4SM BR OVC008
     FM030900 VRB05KT 2SM BR OVC005
      TEMPO 0309/0313 1SM BR OVC003
     FM031600 15008KT 5SM BR OVC007
     FM031800 17010G15KT P6SM OVC015=



000
FTUS44 KLCH 022300
TAFARA
TAF
KARA 022340Z 0300/0324 03006KT 1SM BR OVC004
     FM030300 VRB03KT 1/2SM FG OVC002
     FM031600 15006KT 3SM BR OVC004
     FM031800 17010KT P6SM OVC007
     FM032000 18010G15KT P6SM OVC015=



000
FTUS44 KLCH 022300
TAFLCH
TAF
KLCH 022340Z 0300/0324 VRB05KT 4SM BR OVC004
     FM030300 VRB05KT 2SM BR OVC003
     FM030600 VRB05KT 1SM BR OVC002
      TEMPO 0309/0313 1/4SM FG VV001
     FM031600 15008KT 3SM BR OVC007
     FM031800 17010G15KT P6SM OVC015=



000
FTUS44 KLCH 022300
TAFLFT
TAF
KLFT 022340Z 0300/0324 03006KT 3SM BR OVC004
     FM030300 VRB03KT 1/2SM FG OVC002
     FM031600 15006KT 3SM BR OVC004
     FM031800 17010KT P6SM OVC007
     FM032000 18010G15KT P6SM OVC015=



000
FTUS44 KLCH 022300
TAFAEX
TAF
KAEX 022340Z 0300/0324 VRB04KT 1SM BR OVC003
     FM030300 VRB03KT 1/2SM FG OVC002
     FM031600 14006KT 3SM BR OVC004
     FM031800 17010KT P6SM OVC007
     FM032000 18010G15KT P6SM SCT015=



000
FTUS44 KLCH 022300
TAFARA
TAF
KARA 022340Z 0300/0324 03006KT 1SM BR OVC004
     FM030300 VRB03KT 1/2SM FG OVC002
     FM031600 15006KT 3SM BR OVC004
     FM031800 17010KT P6SM OVC007
     FM032000 18010G15KT P6SM OVC015=



000
FTUS44 KLCH 022300
TAFLCH
TAF
KLCH 022340Z 0300/0324 VRB05KT 4SM BR OVC004
     FM030300 VRB05KT 2SM BR OVC003
     FM030600 VRB05KT 1SM BR OVC002
      TEMPO 0309/0313 1/4SM FG VV001
     FM031600 15008KT 3SM BR OVC007
     FM031800 17010G15KT P6SM OVC015=



000
FTUS44 KLCH 022300
TAFBPT
TAF
KBPT 022340Z 0300/0324 VRB05KT P6SM OVC015
     FM030300 VRB05KT 4SM BR OVC008
     FM030900 VRB05KT 2SM BR OVC005
      TEMPO 0309/0313 1SM BR OVC003
     FM031600 15008KT 5SM BR OVC007
     FM031800 17010G15KT P6SM OVC015=



000
FTUS44 KLCH 022300
TAFLFT
TAF
KLFT 022340Z 0300/0324 03006KT 3SM BR OVC004
     FM030300 VRB03KT 1/2SM FG OVC002
     FM031600 15006KT 3SM BR OVC004
     FM031800 17010KT P6SM OVC007
     FM032000 18010G15KT P6SM OVC015=



000
FTUS44 KLCH 022300
TAFAEX
TAF
KAEX 022340Z 0300/0324 VRB04KT 1SM BR OVC003
     FM030300 VRB03KT 1/2SM FG OVC002
     FM031600 14006KT 3SM BR OVC004
     FM031800 17010KT P6SM OVC007
     FM032000 18010G15KT P6SM SCT015=



000
FTUS44 KLCH 022100 AAA
TAFLFT
TAF AMD
KLFT 022119Z 0221/0318 02006KT 4SM BR VCSH OVC003
      TEMPO 0221/0224 2SM BR OVC006
     FM030000 09006KT 2SM BR VCSH OVC006
      TEMPO 0300/0304 1/2SM FG OVC002
     FM030400 05004KT 1SM BR OVC004
     FM030800 15003KT 1/4SM FG VV001=



000
FTUS44 KLCH 022100 AAA
TAFLCH
TAF AMD
KLCH 022116Z 0221/0318 04008KT P6SM VCSH OVC004
      TEMPO 0221/0224 5SM BR BKN012 OVC025
     FM030000 07006KT P6SM VCSH SCT002 OVC008
      TEMPO 0300/0304 2SM -RA BR BKN005 OVC011
     FM030400 09004KT 1SM BR VCSH OVC004
     FM030800 13005KT 1/2SM FG VCSH OVC002=



000
FTUS44 KLCH 022100 AAA
TAFLCH
TAF AMD
KLCH 022116Z 0221/0318 04008KT P6SM VCSH OVC004
      TEMPO 0221/0224 5SM BR BKN012 OVC025
     FM030000 07006KT P6SM VCSH SCT002 OVC008
      TEMPO 0300/0304 2SM -RA BR BKN005 OVC011
     FM030400 09004KT 1SM BR VCSH OVC004
     FM030800 13005KT 1/2SM FG VCSH OVC002=



000
FTUS44 KLCH 022100 AAA
TAFBPT
TAF AMD
KBPT 022114Z 0221/0318 01005KT P6SM OVC012
      TEMPO 0221/0224 SCT012 OVC025
     FM030000 01005KT 6SM BR OVC012
      TEMPO 0300/0304 2SM -RA BR VV005
     FM030400 04007KT 1SM BR VCSH OVC006
      TEMPO 0304/0308 1/2SM FG VV002
     FM030800 08007KT 1/2SM FG VCSH VV002=



000
FTUS44 KLCH 021700 RRA
TAFARA
TAF
KARA 021758Z 0218/0318 12004KT 1/2SM FG VV002
      TEMPO 0218/0222 3SM BR OVC006
     FM022200 09006KT 4SM BR VCSH OVC006
      TEMPO 0222/0302 1SM BR OVC002
     FM030200 05004KT 3SM BR OVC002
     FM030500 12003KT 1SM BR OVC002
     FM030800 15003KT 1/4SM FG VV001=



000
FTUS44 KLCH 021700 RRA
TAFLCH
TAF
KLCH 021758Z 0218/0318 03008KT P6SM VCSH OVC002
      TEMPO 0218/0220 5SM -RA BR BKN006 OVC025
     FM022000 07006KT P6SM VCSH SCT002 OVC008
      TEMPO 0222/0302 5SM -RA BR BKN006 OVC025
     FM030200 09004KT 1SM BR VCSH OVC004
     FM030800 13005KT 1/2SM FG VCSH OVC002=



000
FTUS44 KLCH 021700 RRA
TAFARA
TAF
KARA 021758Z 0218/0318 12004KT 1/2SM FG VV002
      TEMPO 0218/0222 3SM BR OVC006
     FM022200 09006KT 4SM BR VCSH OVC006
      TEMPO 0222/0302 1SM BR OVC002
     FM030200 05004KT 3SM BR OVC002
     FM030500 12003KT 1SM BR OVC002
     FM030800 15003KT 1/4SM FG VV001=



000
FTUS44 KLCH 021700 RRA
TAFBPT
TAF
KBPT 021758Z 0218/0318 01005KT P6SM OVC004
      TEMPO 0220/0224 5SM -RA BR SCT004 OVC025
     FM030000 01005KT 3SM -RA BR OVC006
      TEMPO 0300/0304 1SM BR VV002
     FM030400 04007KT 1SM BR VCSH OVC004
     FM030800 08007KT 1/2SM FG VCSH VV002=



000
FTUS44 KLCH 021700 RRA
TAFAEX
TAF
KAEX 021758Z 0218/0318 01005KT P6SM VCSH VV004
      TEMPO 0220/0224 5SM -RA BR SCT004 OVC012
     FM030000 02007KT P6SM -RA OVC006
      TEMPO 0300/0304 1SM BR VV012
     FM030400 07003KT 2SM BR OVC002
     FM031000 12004KT 3SM BR OVC002=



000
FTUS44 KLCH 021700 RRA
TAFLFT
TAF
KLFT 021758Z 0218/0318 07003KT 1SM BR VCSH OVC002
      TEMPO 0218/0222 3SM BR OVC006
     FM022200 09006KT 4SM BR VCSH OVC006
      TEMPO 0222/0302 1SM BR OVC002
     FM030200 05004KT 3SM BR OVC002
     FM030500 12003KT 1SM BR OVC002
     FM030800 15003KT 1/4SM FG VV001=



000
FTUS44 KLCH 021700 RRA
TAFLCH
TAF
KLCH 021758Z 0218/0318 03008KT P6SM VCSH OVC002
      TEMPO 0218/0220 5SM -RA BR BKN006 OVC025
     FM022000 07006KT P6SM VCSH SCT002 OVC008
      TEMPO 0222/0302 5SM -RA BR BKN006 OVC025
     FM030200 09004KT 1SM BR VCSH OVC004
     FM030800 13005KT 1/2SM FG VCSH OVC002=



000
FTUS44 KLCH 021700 RRA
TAFBPT
TAF
KBPT 021758Z 0218/0318 01005KT P6SM OVC004
      TEMPO 0220/0224 5SM -RA BR SCT004 OVC025
     FM030000 01005KT 3SM -RA BR OVC006
      TEMPO 0300/0304 1SM BR VV002
     FM030400 04007KT 1SM BR VCSH OVC004
     FM030800 08007KT 1/2SM FG VCSH VV002=



000
FTUS44 KLCH 021700 RRA
TAFAEX
TAF
KAEX 021758Z 0218/0318 01005KT P6SM VCSH VV004
      TEMPO 0220/0224 5SM -RA BR SCT004 OVC012
     FM030000 02007KT P6SM -RA OVC006
      TEMPO 0300/0304 1SM BR VV012
     FM030400 07003KT 2SM BR OVC002
     FM031000 12004KT 3SM BR OVC002=



000
FTUS44 KLCH 021700 RRA
TAFLFT
TAF
KLFT 021758Z 0218/0318 07003KT 1SM BR VCSH OVC002
      TEMPO 0218/0222 3SM BR OVC006
     FM022200 09006KT 4SM BR VCSH OVC006
      TEMPO 0222/0302 1SM BR OVC002
     FM030200 05004KT 3SM BR OVC002
     FM030500 12003KT 1SM BR OVC002
     FM030800 15003KT 1/4SM FG VV001=



000
FTUS44 KLCH 021500 AAB
TAFARA
TAF AMD
KARA 021550Z 0216/0312 12004KT 1SM BR VV002
      TEMPO 0216/0220 1SM BR OVC006
     FM030500 12004KT 1SM BR OVC002
     FM031100 13006KT 1/4SM FG VV001=



000
FTUS44 KLCH 021500 AAB
TAFARA
TAF AMD
KARA 021550Z 0216/0312 12004KT 1SM BR VV002
      TEMPO 0216/0220 1SM BR OVC006
     FM030500 12004KT 1SM BR OVC002
     FM031100 13006KT 1/4SM FG VV001=



000
FTUS44 KLCH 021400 AAA
TAFLCH
TAF AMD
KLCH 021406Z 0214/0312 06005KT 3SM BR VCSH OVC004
      TEMPO 0214/0216 1SM -RA BR VV002
     FM021600 07006KT 1/2SM -RA FG SCT004 OVC009
     FM022200 08004KT 2SM BR OVC003
     FM030000 09004KT 1SM BR OVC004
     FM031000 13005KT 1/2SM FG OVC002=



000
FTUS44 KLCH 021300 AAA
TAFARA
TAF AMD
KARA 021316Z 0213/0312 12004KT 1/4SM FG VV002
     FM021600 11006KT 4SM BR VCSH OVC008
      TEMPO 0216/0220 1SM BR OVC004
     FM030500 12004KT 1SM BR OVC002
     FM031100 13006KT 1/4SM FG VV001=



000
FTUS44 KLCH 021300 AAA
TAFLFT
TAF AMD
KLFT 021313Z 0213/0312 07003KT 1SM BR VCSH OVC004
      TEMPO 0213/0215 1/4SM FG VV002
     FM021800 09006KT 4SM BR VCSH OVC008
      TEMPO 0218/0220 1SM BR OVC004
     FM030100 05004KT 3SM BR OVC002
     FM030500 12003KT 1SM BR OVC002
     FM031100 15003KT 1/4SM FG VV001=



000
FTUS44 KLCH 021300 AAA
TAFLFT
TAF AMD
KLFT 021313Z 0213/0312 07003KT 1SM BR VCSH OVC004
      TEMPO 0213/0215 1/4SM FG VV002
     FM021800 09006KT 4SM BR VCSH OVC008
      TEMPO 0218/0220 1SM BR OVC004
     FM030100 05004KT 3SM BR OVC002
     FM030500 12003KT 1SM BR OVC002
     FM031100 15003KT 1/4SM FG VV001=



000
FTUS44 KLCH 021300 AAB
TAFBPT
TAF AMD
KBPT 021307Z 0213/0312 01005KT 6SM -RA BR OVC008
     FM021400 01005KT 3SM -RA BR OVC005
      TEMPO 0214/0217 1/2SM FG VV002
     FM021700 04007KT 1/2SM -RA FG OVC002
     FM030000 08007KT 1SM BR OVC004=



000
FTUS44 KLCH 021300 AAB
TAFBPT
TAF AMD
KBPT 021307Z 0213/0312 01005KT 6SM -RA BR OVC008
     FM021400 01005KT 3SM -RA BR OVC005
      TEMPO 0214/0217 1/2SM FG VV002
     FM021700 04007KT 1/2SM -RA FG OVC002
     FM030000 08007KT 1SM BR OVC004=



000
FTUS44 KLCH 021200 AAA
TAFBPT
TAF AMD
KBPT 021205Z 0212/0312 01005KT 3SM -RA BR OVC005
      TEMPO 0214/0217 1/2SM FG VV002
     FM021700 04007KT 1/2SM -RA FG OVC002
     FM030000 08007KT 1SM BR OVC004=



000
FTUS44 KLCH 021100
TAFLFT
TAF
KLFT 021124Z 0212/0312 07003KT 1SM BR VCSH OVC004
      TEMPO 0212/0213 1/2SM FG VV002
     FM021600 05006KT 4SM BR VCSH OVC008
      TEMPO 0216/0220 1SM BR OVC004
     FM030100 05004KT 3SM BR OVC002
     FM030500 12003KT 1SM BR OVC002
     FM031100 15003KT 1/4SM FG VV001=



000
FTUS44 KLCH 021100
TAFARA
TAF
KARA 021124Z 0212/0312 10005KT 1SM BR VCSH OVC004
      TEMPO 0212/0216 1/4SM FG VV001
     FM021600 11006KT 4SM BR VCSH OVC008
      TEMPO 0216/0220 1SM BR OVC004
     FM030500 12004KT 1SM BR OVC002
     FM031100 13006KT 1/4SM FG VV001=



000
FTUS44 KLCH 021100
TAFBPT
TAF
KBPT 021124Z 0212/0312 01005KT 2SM -RA BR VV002
      TEMPO 0214/0217 1/2SM FG
     FM021700 04007KT 1/2SM -RA FG OVC002
     FM030000 08007KT 1SM BR OVC004=



000
FTUS44 KLCH 021100
TAFAEX
TAF
KAEX 021124Z 0212/0312 01005KT 2SM BR VCSH VV002
     FM022000 03007KT 1SM -RA BR OVC006
     FM030300 07003KT 2SM BR OVC002
     FM031000 12004KT 3SM BR OVC002=



000
FTUS44 KLCH 021100
TAFLCH
TAF
KLCH 021124Z 0212/0312 06005KT 3SM BR VCSH OVC004
      TEMPO 0213/0215 1/4SM FG VV001
     FM021600 07006KT 1/2SM -RA FG SCT004 OVC009
     FM022200 08004KT 2SM BR OVC003
     FM030000 09004KT 1SM BR OVC004
     FM031000 13005KT 1/2SM FG OVC002=



000
FTUS44 KLCH 021100
TAFLCH
TAF
KLCH 021124Z 0212/0312 06005KT 3SM BR VCSH OVC004
      TEMPO 0213/0215 1/4SM FG VV001
     FM021600 07006KT 1/2SM -RA FG SCT004 OVC009
     FM022200 08004KT 2SM BR OVC003
     FM030000 09004KT 1SM BR OVC004
     FM031000 13005KT 1/2SM FG OVC002=



000
FTUS44 KLCH 021100
TAFAEX
TAF
KAEX 021124Z 0212/0312 01005KT 2SM BR VCSH VV002
     FM022000 03007KT 1SM -RA BR OVC006
     FM030300 07003KT 2SM BR OVC002
     FM031000 12004KT 3SM BR OVC002=



000
FTUS44 KLCH 021100
TAFLFT
TAF
KLFT 021124Z 0212/0312 07003KT 1SM BR VCSH OVC004
      TEMPO 0212/0213 1/2SM FG VV002
     FM021600 05006KT 4SM BR VCSH OVC008
      TEMPO 0216/0220 1SM BR OVC004
     FM030100 05004KT 3SM BR OVC002
     FM030500 12003KT 1SM BR OVC002
     FM031100 15003KT 1/4SM FG VV001=



000
FTUS44 KLCH 021100
TAFARA
TAF
KARA 021124Z 0212/0312 10005KT 1SM BR VCSH OVC004
      TEMPO 0212/0216 1/4SM FG VV001
     FM021600 11006KT 4SM BR VCSH OVC008
      TEMPO 0216/0220 1SM BR OVC004
     FM030500 12004KT 1SM BR OVC002
     FM031100 13006KT 1/4SM FG VV001=



000
FTUS44 KLCH 021100
TAFBPT
TAF
KBPT 021124Z 0212/0312 01005KT 2SM -RA BR VV002
      TEMPO 0214/0217 1/2SM FG
     FM021700 04007KT 1/2SM -RA FG OVC002
     FM030000 08007KT 1SM BR OVC004=



000
FTUS44 KLCH 021000 AAA
TAFLCH
TAF AMD
KLCH 021032Z 0211/0306 07005KT 3SM BR VCSH OVC004
      TEMPO 0213/0215 1/4SM FG VV001
     FM021600 07006KT 1/2SM -RA FG SCT004 OVC009
     FM022200 08004KT 2SM BR OVC003
     FM030000 09004KT 1SM BR OVC004=



000
FTUS44 KLCH 021000 AAA
TAFBPT
TAF AMD
KBPT 021015Z 0210/0306 35006KT 3SM -RA BR OVC003
     FM021100 01005KT 1/4SM -RA FG VV001
     FM022000 04007KT 1/2SM -RA FG OVC002
     FM030000 06007KT 1/2SM FG OVC004=



000
FTUS44 KLCH 021000 AAA
TAFBPT
TAF AMD
KBPT 021015Z 0210/0306 35006KT 3SM -RA BR OVC003
     FM021100 01005KT 1/4SM -RA FG VV001
     FM022000 04007KT 1/2SM -RA FG OVC002
     FM030000 06007KT 1/2SM FG OVC004=



000
FTUS44 KLCH 020900 AAA
TAFAEX
TAF AMD
KAEX 020934Z 0210/0306 01006KT 1/2SM FG VCSH VV002
     FM022000 03007KT 1SM -RA BR OVC006
     FM030300 07003KT 2SM BR OVC002=



000
FTUS44 KLCH 020900 AAA
TAFARA
TAF AMD
KARA 020923Z 0209/0306 09005KT 6SM BR VCSH OVC004
     FM021000 09003KT 2SM BR VCSH OVC004
     FM021100 10005KT 1SM BR VCSH OVC004
      TEMPO 0211/0213 1/4SM FG VV001
     FM021600 09006KT 4SM BR VCSH OVC008
      TEMPO 0216/0220 1SM BR OVC004
     FM030500 12004KT 1SM BR OVC002=



000
FTUS44 KLCH 020900 AAA
TAFARA
TAF AMD
KARA 020923Z 0209/0306 09005KT 6SM BR VCSH OVC004
     FM021000 09003KT 2SM BR VCSH OVC004
     FM021100 10005KT 1SM BR VCSH OVC004
      TEMPO 0211/0213 1/4SM FG VV001
     FM021600 09006KT 4SM BR VCSH OVC008
      TEMPO 0216/0220 1SM BR OVC004
     FM030500 12004KT 1SM BR OVC002=



000
FTUS44 KLCH 020800 AAA
TAFLFT
TAF AMD
KLFT 020812Z 0208/0306 10003KT 6SM -RA OVC004
     FM020900 VRB03KT 2SM -RA BR OVC004
     FM021100 05003KT 1SM BR VCSH OVC004
      TEMPO 0211/0213 1/4SM FG VV001
     FM021600 05006KT 4SM BR VCSH OVC008
      TEMPO 0216/0220 1SM BR OVC004
     FM030100 05004KT 3SM BR OVC002
     FM030500 12003KT 1SM BR OVC002=



000
FTUS44 KLCH 020500
TAFLCH
TAF
KLCH 020520Z 0206/0306 03007KT 3SM BR VCSH OVC004
      TEMPO 0206/0210 1/4SM FG VV001
     FM021000 06004KT 1/4SM FG VV001
     FM021600 09008KT 3SM BR VCSH OVC004
      TEMPO 0216/0220 1/2SM FG OVC002=



000
FTUS44 KLCH 020500
TAFARA
TAF
KARA 020520Z 0206/0306 10006KT 6SM BR VCSH OVC008
      TEMPO 0206/0208 1SM BR OVC004
     FM020800 06004KT 1SM BR OVC004
     FM021600 09008KT 4SM BR VCSH OVC008
      TEMPO 0216/0220 1SM BR OVC004=



000
FTUS44 KLCH 020500
TAFLFT
TAF
KLFT 020520Z 0206/0306 10006KT 6SM BR VCSH OVC008
      TEMPO 0206/0208 1SM BR OVC004
     FM020800 06004KT 1SM BR OVC004
     FM021600 09008KT 4SM BR VCSH OVC008
      TEMPO 0216/0220 1SM BR OVC004=



000
FTUS44 KLCH 020500
TAFAEX
TAF
KAEX 020520Z 0206/0306 VRB04KT 6SM BR VCSH OVC004
      TEMPO 0206/0210 2SM SHRA BR OVC002
     FM021000 VRB04KT 1SM BR VCSH OVC002
     FM021600 09006KT 4SM BR VCSH OVC005=



000
FTUS44 KLCH 020500
TAFBPT
TAF
KBPT 020520Z 0206/0306 03007KT 3SM BR VCSH OVC004
      TEMPO 0206/0210 1/4SM FG VV001
     FM021000 06004KT 1/4SM FG VV001
     FM021600 09008KT 3SM BR VCSH OVC004
      TEMPO 0216/0220 1/2SM FG OVC002=



000
FTUS44 KLCH 020300 AAB
TAFARA
TAF AMD
KARA 020345Z 0204/0224 04009KT 4SM -SHRA BR OVC005
      TEMPO 0204/0208 1/2SM SHRA FG OVC002
     FM020800 12004KT 1/4SM FG VV001
     FM021600 12008KT 4SM BR VCSH OVC008=



000
FTUS44 KLCH 020300 AAB
TAFARA
TAF AMD
KARA 020345Z 0204/0224 04009KT 4SM -SHRA BR OVC005
      TEMPO 0204/0208 1/2SM SHRA FG OVC002
     FM020800 12004KT 1/4SM FG VV001
     FM021600 12008KT 4SM BR VCSH OVC008=



000
FTUS44 KLCH 020300 AAA
TAFBPT
TAF AMD
KBPT 020343Z 0204/0224 36004KT 1/4SM FG VCSH VV001
      TEMPO 0204/0208 2SM SHRA BR OVC002
     FM020800 12004KT 1/2SM FG OVC001
     FM021600 12008KT 3SM BR VCSH OVC004=



000
FTUS44 KLCH 020300 AAB
TAFLCH
TAF AMD
KLCH 020341Z 0204/0224 06011KT 4SM BR VCSH OVC004
      TEMPO 0204/0208 1/4SM SHRA FG OVC001
     FM020800 12004KT 1/4SM FG OVC001
     FM021600 12008KT 3SM BR VCSH OVC004=



000
FTUS44 KLCH 020300 AAB
TAFLCH
TAF AMD
KLCH 020341Z 0204/0224 06011KT 4SM BR VCSH OVC004
      TEMPO 0204/0208 1/4SM SHRA FG OVC001
     FM020800 12004KT 1/4SM FG OVC001
     FM021600 12008KT 3SM BR VCSH OVC004=



000
FTUS44 KLCH 020100 AAA
TAFARA
TAF AMD
KARA 020117Z 0201/0224 18010KT 6SM BR VCTS SCT015 OVC025CB
      TEMPO 0201/0204 3SM SHRA BR OVC015
     FM020400 15006KT 3SM BR VCSH OVC015
      TEMPO 0204/0208 1SM BR OVC008
     FM020800 12004KT 1SM BR OVC004
     FM021600 12008KT 4SM BR VCSH OVC008=



000
FTUS44 KLCH 020100 AAA
TAFARA
TAF AMD
KARA 020117Z 0201/0224 18010KT 6SM BR VCTS SCT015 OVC025CB
      TEMPO 0201/0204 3SM SHRA BR OVC015
     FM020400 15006KT 3SM BR VCSH OVC015
      TEMPO 0204/0208 1SM BR OVC008
     FM020800 12004KT 1SM BR OVC004
     FM021600 12008KT 4SM BR VCSH OVC008=



000
FTUS44 KLCH 020000 AAA
TAFLCH
TAF AMD
KLCH 020022Z 0200/0224 31004KT 1/4SM FG VCSH VV002
      TEMPO 0200/0204 1SM SHRA BR OVC004
     FM020400 15006KT 1/4SM FG VCSH VV002
      TEMPO 0204/0208 1SM SHRA BR OVC004
     FM020800 12004KT 1/4SM FG OVC001
     FM021600 12008KT 3SM BR VCSH OVC004=



000
FTUS44 KLCH 020000 AAA
TAFLCH
TAF AMD
KLCH 020022Z 0200/0224 31004KT 1/4SM FG VCSH VV002
      TEMPO 0200/0204 1SM SHRA BR OVC004
     FM020400 15006KT 1/4SM FG VCSH VV002
      TEMPO 0204/0208 1SM SHRA BR OVC004
     FM020800 12004KT 1/4SM FG OVC001
     FM021600 12008KT 3SM BR VCSH OVC004=



000
FTUS44 KLCH 012300
TAFBPT
TAF
KBPT 012320Z 0200/0224 18006KT 4SM BR VCSH OVC004
      TEMPO 0200/0204 1SM SHRA BR OVC002
     FM020400 15006KT 2SM BR VCSH OVC002
      TEMPO 0204/0208 1/2SM FG OVC001
     FM020800 12004KT 1/2SM FG OVC001
     FM021600 12008KT 3SM BR VCSH OVC004=



000
FTUS44 KLCH 012300
TAFARA
TAF
KARA 012320Z 0200/0224 18010KT 6SM BR VCSH SCT025 OVC050
      TEMPO 0200/0204 3SM SHRA BR OVC025
     FM020400 15006KT 3SM BR VCSH OVC015
      TEMPO 0204/0208 1SM BR OVC008
     FM020800 12004KT 1SM BR OVC004
     FM021600 12008KT 4SM BR VCSH OVC008=



000
FTUS44 KLCH 012300
TAFBPT
TAF
KBPT 012320Z 0200/0224 18006KT 4SM BR VCSH OVC004
      TEMPO 0200/0204 1SM SHRA BR OVC002
     FM020400 15006KT 2SM BR VCSH OVC002
      TEMPO 0204/0208 1/2SM FG OVC001
     FM020800 12004KT 1/2SM FG OVC001
     FM021600 12008KT 3SM BR VCSH OVC004=



000
FTUS44 KLCH 012300
TAFAEX
TAF
KAEX 012320Z 0200/0224 31006KT 4SM -SHRA BR VCTS OVC008CB
      TEMPO 0200/0204 1SM +SHRA BR OVC004
     FM020400 09005KT 4SM BR VCSH OVC004
      TEMPO 0204/0208 1SM +SHRA BR OVC002
     FM020800 09004KT 1SM BR VCSH OVC002
     FM021600 09006KT 4SM BR VCSH OVC005=



000
FTUS44 KLCH 012300
TAFLFT
TAF
KLFT 012320Z 0200/0224 18010KT 6SM BR VCSH OVC025
      TEMPO 0200/0204 3SM SHRA BR OVC008
     FM020400 15006KT 3SM BR VCSH OVC008
      TEMPO 0204/0208 1SM BR OVC004
     FM020800 12004KT 1SM BR OVC004
     FM021600 12008KT 4SM BR VCSH OVC008=



000
FTUS44 KLCH 012300
TAFLCH
TAF
KLCH 012320Z 0200/0224 18006KT 4SM BR VCSH OVC004
      TEMPO 0200/0204 1SM SHRA BR OVC002
     FM020400 15006KT 2SM BR VCSH OVC002
      TEMPO 0204/0208 1/2SM FG OVC001
     FM020800 12004KT 1/2SM FG OVC001
     FM021600 12008KT 3SM BR VCSH OVC004=



000
FTUS44 KLCH 012300
TAFAEX
TAF
KAEX 012320Z 0200/0224 31006KT 4SM -SHRA BR VCTS OVC008CB
      TEMPO 0200/0204 1SM +SHRA BR OVC004
     FM020400 09005KT 4SM BR VCSH OVC004
      TEMPO 0204/0208 1SM +SHRA BR OVC002
     FM020800 09004KT 1SM BR VCSH OVC002
     FM021600 09006KT 4SM BR VCSH OVC005=



000
FTUS44 KLCH 012300
TAFLFT
TAF
KLFT 012320Z 0200/0224 18010KT 6SM BR VCSH OVC025
      TEMPO 0200/0204 3SM SHRA BR OVC008
     FM020400 15006KT 3SM BR VCSH OVC008
      TEMPO 0204/0208 1SM BR OVC004
     FM020800 12004KT 1SM BR OVC004
     FM021600 12008KT 4SM BR VCSH OVC008=



000
FTUS44 KLCH 012300
TAFLCH
TAF
KLCH 012320Z 0200/0224 18006KT 4SM BR VCSH OVC004
      TEMPO 0200/0204 1SM SHRA BR OVC002
     FM020400 15006KT 2SM BR VCSH OVC002
      TEMPO 0204/0208 1/2SM FG OVC001
     FM020800 12004KT 1/2SM FG OVC001
     FM021600 12008KT 3SM BR VCSH OVC004=



000
FTUS44 KLCH 012100 AAC
TAFLCH
TAF AMD
KLCH 012154Z 0122/0218 19006KT P6SM VCTS BKN004 BKN025CB OVC040
      TEMPO 0122/0124 3SM SHRA BR SCT005 OVC015
     FM020100 13006KT 4SM BR VCSH OVC007
     FM020600 11004KT 1SM -RA BR OVC002=



000
FTUS44 KLCH 012100 AAC
TAFLCH
TAF AMD
KLCH 012154Z 0122/0218 19006KT P6SM VCTS BKN004 BKN025CB OVC040
      TEMPO 0122/0124 3SM SHRA BR SCT005 OVC015
     FM020100 13006KT 4SM BR VCSH OVC007
     FM020600 11004KT 1SM -RA BR OVC002=



000
FTUS44 KLCH 012100 AAB
TAFLCH
TAF AMD
KLCH 012102Z 0121/0218 18006KT P6SM VCTS SCT006 BKN025CB OVC045
      TEMPO 0121/0123 3SM SHRA BR BKN007 OVC015
     FM020100 13006KT 4SM BR VCSH OVC007
     FM020600 11004KT 1SM -RA BR OVC002=



    US Dept of Commerce
    National Oceanic and Atmospheric Administration
    National Weather Service
    1325 East West Highway
    Silver Spring, MD 20910
    Page Author: NWS Internet Services Team
Disclaimer
Information Quality
Credits
Glossary
Privacy Policy
Freedom of Information Act (FOIA)
About Us
Career Opportunities